sensor_id;sensor_type;location;lat;lon;timestamp;P1;durP1;ratioP1;P2;durP2;ratioP2
69161;SDS011;56269;51.738;21.652;2023-02-03T00:00:46;10.18;;;3.35;;
69161;SDS011;56269;51.738;21.652;2023-02-03T00:03:29;8.80;;;2.72;;
69161;SDS011;56269;51.738;21.652;2023-02-03T00:05:55;5.07;;;1.88;;
69161;SDS011;56269;51.738;21.652;2023-02-03T00:08:22;6.33;;;2.27;;
69161;SDS011;56269;51.738;21.652;2023-02-03T00:10:48;4.55;;;1.70;;
69161;SDS011;56269;51.738;21.652;2023-02-03T00:13:16;8.38;;;2.67;;
69161;SDS011;56269;51.738;21.652;2023-02-03T00:15:42;6.22;;;2.35;;
69161;SDS011;56269;51.738;21.652;2023-02-03T00:18:08;7.25;;;2.75;;
69161;SDS011;56269;51.738;21.652;2023-02-03T00:20:34;7.47;;;2.40;;
69161;SDS011;56269;51.738;21.652;2023-02-03T00:23:08;7.63;;;1.85;;
69161;SDS011;56269;51.738;21.652;2023-02-03T00:25:35;7.00;;;2.70;;
69161;SDS011;56269;51.738;21.652;2023-02-03T00:28:03;5.90;;;1.98;;
69161;SDS011;56269;51.738;21.652;2023-02-03T00:30:30;5.97;;;1.85;;
69161;SDS011;56269;51.738;21.652;2023-02-03T00:32:59;7.33;;;2.13;;
69161;SDS011;56269;51.738;21.652;2023-02-03T00:35:26;5.85;;;2.47;;
69161;SDS011;56269;51.738;21.652;2023-02-03T00:37:53;6.70;;;2.40;;
69161;SDS011;56269;51.738;21.652;2023-02-03T00:40:20;6.28;;;2.42;;
69161;SDS011;56269;51.738;21.652;2023-02-03T00:42:48;7.13;;;2.13;;
69161;SDS011;56269;51.738;21.652;2023-02-03T00:45:14;4.23;;;1.50;;
69161;SDS011;56269;51.738;21.652;2023-02-03T00:47:41;5.90;;;2.17;;
69161;SDS011;56269;51.738;21.652;2023-02-03T00:50:08;4.95;;;1.60;;
69161;SDS011;56269;51.738;21.652;2023-02-03T00:52:35;6.95;;;2.05;;
69161;SDS011;56269;51.738;21.652;2023-02-03T00:55:03;5.25;;;2.08;;
69161;SDS011;56269;51.738;21.652;2023-02-03T00:57:30;8.63;;;2.70;;
69161;SDS011;56269;51.738;21.652;2023-02-03T00:59:56;5.65;;;2.10;;
69161;SDS011;56269;51.738;21.652;2023-02-03T01:02:23;3.67;;;1.30;;
69161;SDS011;56269;51.738;21.652;2023-02-03T01:04:49;3.28;;;1.27;;
69161;SDS011;56269;51.738;21.652;2023-02-03T01:07:16;7.32;;;2.22;;
69161;SDS011;56269;51.738;21.652;2023-02-03T01:09:42;8.13;;;1.57;;
69161;SDS011;56269;51.738;21.652;2023-02-03T01:12:09;5.70;;;2.03;;
69161;SDS011;56269;51.738;21.652;2023-02-03T01:14:35;6.50;;;1.83;;
69161;SDS011;56269;51.738;21.652;2023-02-03T01:17:01;5.15;;;1.65;;
69161;SDS011;56269;51.738;21.652;2023-02-03T01:19:27;5.55;;;1.92;;
69161;SDS011;56269;51.738;21.652;2023-02-03T01:21:54;4.37;;;1.50;;
69161;SDS011;56269;51.738;21.652;2023-02-03T01:24:20;2.47;;;1.10;;
69161;SDS011;56269;51.738;21.652;2023-02-03T01:26:46;3.50;;;1.20;;
69161;SDS011;56269;51.738;21.652;2023-02-03T01:29:12;4.75;;;1.73;;
69161;SDS011;56269;51.738;21.652;2023-02-03T01:31:39;3.35;;;1.10;;
69161;SDS011;56269;51.738;21.652;2023-02-03T01:34:07;4.53;;;1.53;;
69161;SDS011;56269;51.738;21.652;2023-02-03T01:36:37;3.90;;;1.40;;
69161;SDS011;56269;51.738;21.652;2023-02-03T01:39:04;4.15;;;1.50;;
69161;SDS011;56269;51.738;21.652;2023-02-03T01:41:34;3.58;;;1.60;;
69161;SDS011;56269;51.738;21.652;2023-02-03T01:44:31;8.80;;;2.78;;
69161;SDS011;56269;51.738;21.652;2023-02-03T01:47:17;5.70;;;1.37;;
69161;SDS011;56269;51.738;21.652;2023-02-03T01:52:46;7.82;;;3.58;;
69161;SDS011;56269;51.738;21.652;2023-02-03T01:55:16;5.72;;;1.67;;
69161;SDS011;56269;51.738;21.652;2023-02-03T01:57:47;6.88;;;2.30;;
69161;SDS011;56269;51.738;21.652;2023-02-03T02:00:21;5.73;;;1.60;;
69161;SDS011;56269;51.738;21.652;2023-02-03T02:02:48;5.15;;;2.08;;
69161;SDS011;56269;51.738;21.652;2023-02-03T02:05:28;4.68;;;1.70;;
69161;SDS011;56269;51.738;21.652;2023-02-03T02:07:59;4.93;;;1.80;;
69161;SDS011;56269;51.738;21.652;2023-02-03T02:10:28;4.45;;;1.60;;
69161;SDS011;56269;51.738;21.652;2023-02-03T02:12:56;5.90;;;1.93;;
69161;SDS011;56269;51.738;21.652;2023-02-03T02:15:26;4.28;;;1.80;;
69161;SDS011;56269;51.738;21.652;2023-02-03T02:34:37;4.38;;;1.48;;
69161;SDS011;56269;51.738;21.652;2023-02-03T02:37:07;4.32;;;1.50;;
69161;SDS011;56269;51.738;21.652;2023-02-03T02:39:51;7.53;;;2.40;;
69161;SDS011;56269;51.738;21.652;2023-02-03T02:42:28;4.85;;;1.77;;
69161;SDS011;56269;51.738;21.652;2023-02-03T02:45:08;5.90;;;2.10;;
69161;SDS011;56269;51.738;21.652;2023-02-03T02:47:52;5.40;;;1.90;;
69161;SDS011;56269;51.738;21.652;2023-02-03T02:50:43;3.22;;;1.20;;
69161;SDS011;56269;51.738;21.652;2023-02-03T02:53:12;4.17;;;1.43;;
69161;SDS011;56269;51.738;21.652;2023-02-03T02:55:40;4.30;;;1.48;;
69161;SDS011;56269;51.738;21.652;2023-02-03T02:58:08;2.03;;;0.93;;
69161;SDS011;56269;51.738;21.652;2023-02-03T03:00:38;6.45;;;2.20;;
69161;SDS011;56269;51.738;21.652;2023-02-03T03:03:10;3.47;;;1.20;;
69161;SDS011;56269;51.738;21.652;2023-02-03T03:05:52;5.57;;;2.00;;
69161;SDS011;56269;51.738;21.652;2023-02-03T03:08:24;6.40;;;2.28;;
69161;SDS011;56269;51.738;21.652;2023-02-03T03:11:01;2.17;;;1.00;;
69161;SDS011;56269;51.738;21.652;2023-02-03T03:13:30;2.38;;;1.02;;
69161;SDS011;56269;51.738;21.652;2023-02-03T03:16:00;5.15;;;1.30;;
69161;SDS011;56269;51.738;21.652;2023-02-03T03:18:30;6.00;;;1.87;;
69161;SDS011;56269;51.738;21.652;2023-02-03T03:21:00;2.90;;;1.30;;
69161;SDS011;56269;51.738;21.652;2023-02-03T03:23:32;2.95;;;1.30;;
69161;SDS011;56269;51.738;21.652;2023-02-03T03:26:21;4.13;;;1.63;;
69161;SDS011;56269;51.738;21.652;2023-02-03T03:31:45;3.03;;;1.10;;
69161;SDS011;56269;51.738;21.652;2023-02-03T03:34:11;4.63;;;1.52;;
69161;SDS011;56269;51.738;21.652;2023-02-03T03:37:02;5.45;;;1.98;;
69161;SDS011;56269;51.738;21.652;2023-02-03T03:42:06;5.53;;;1.95;;
69161;SDS011;56269;51.738;21.652;2023-02-03T03:44:59;3.23;;;1.27;;
69161;SDS011;56269;51.738;21.652;2023-02-03T03:47:29;4.95;;;1.75;;
69161;SDS011;56269;51.738;21.652;2023-02-03T03:50:00;3.80;;;1.52;;
69161;SDS011;56269;51.738;21.652;2023-02-03T03:52:29;3.90;;;1.55;;
69161;SDS011;56269;51.738;21.652;2023-02-03T03:54:59;6.00;;;2.05;;
69161;SDS011;56269;51.738;21.652;2023-02-03T03:58:14;3.97;;;1.33;;
69161;SDS011;56269;51.738;21.652;2023-02-03T04:00:26;3.80;;;1.20;;
69161;SDS011;56269;51.738;21.652;2023-02-03T04:02:56;4.43;;;1.52;;
69161;SDS011;56269;51.738;21.652;2023-02-03T04:05:25;3.92;;;1.40;;
69161;SDS011;56269;51.738;21.652;2023-02-03T04:07:53;5.10;;;1.83;;
69161;SDS011;56269;51.738;21.652;2023-02-03T04:12:59;5.25;;;1.88;;
69161;SDS011;56269;51.738;21.652;2023-02-03T04:15:26;4.68;;;1.70;;
69161;SDS011;56269;51.738;21.652;2023-02-03T04:17:53;3.08;;;1.10;;
69161;SDS011;56269;51.738;21.652;2023-02-03T04:20:21;4.05;;;1.67;;
69161;SDS011;56269;51.738;21.652;2023-02-03T04:22:49;3.90;;;1.53;;
69161;SDS011;56269;51.738;21.652;2023-02-03T04:25:15;6.00;;;2.08;;
69161;SDS011;56269;51.738;21.652;2023-02-03T04:27:42;3.92;;;1.60;;
69161;SDS011;56269;51.738;21.652;2023-02-03T04:30:08;4.05;;;1.38;;
69161;SDS011;56269;51.738;21.652;2023-02-03T04:32:35;5.65;;;1.88;;
69161;SDS011;56269;51.738;21.652;2023-02-03T04:35:02;4.90;;;1.30;;
69161;SDS011;56269;51.738;21.652;2023-02-03T04:37:30;3.75;;;1.23;;
69161;SDS011;56269;51.738;21.652;2023-02-03T04:39:57;3.85;;;1.67;;
69161;SDS011;56269;51.738;21.652;2023-02-03T04:42:23;2.72;;;1.10;;
69161;SDS011;56269;51.738;21.652;2023-02-03T04:44:50;4.90;;;1.67;;
69161;SDS011;56269;51.738;21.652;2023-02-03T04:47:17;5.37;;;1.57;;
69161;SDS011;56269;51.738;21.652;2023-02-03T04:49:44;6.82;;;1.42;;
69161;SDS011;56269;51.738;21.652;2023-02-03T04:52:10;5.63;;;2.03;;
69161;SDS011;56269;51.738;21.652;2023-02-03T04:54:37;3.60;;;1.35;;
69161;SDS011;56269;51.738;21.652;2023-02-03T04:57:05;4.68;;;1.40;;
69161;SDS011;56269;51.738;21.652;2023-02-03T04:59:31;3.53;;;1.30;;
69161;SDS011;56269;51.738;21.652;2023-02-03T05:02:00;4.40;;;1.52;;
69161;SDS011;56269;51.738;21.652;2023-02-03T05:04:28;5.22;;;1.63;;
69161;SDS011;56269;51.738;21.652;2023-02-03T05:06:54;2.83;;;1.13;;
69161;SDS011;56269;51.738;21.652;2023-02-03T05:09:22;4.93;;;1.88;;
69161;SDS011;56269;51.738;21.652;2023-02-03T05:11:49;2.57;;;1.00;;
69161;SDS011;56269;51.738;21.652;2023-02-03T05:14:15;4.38;;;1.38;;
69161;SDS011;56269;51.738;21.652;2023-02-03T05:16:42;3.17;;;1.48;;
69161;SDS011;56269;51.738;21.652;2023-02-03T05:19:08;2.35;;;1.10;;
69161;SDS011;56269;51.738;21.652;2023-02-03T05:21:34;3.15;;;1.80;;
69161;SDS011;56269;51.738;21.652;2023-02-03T05:24:00;4.83;;;1.70;;
69161;SDS011;56269;51.738;21.652;2023-02-03T05:26:28;8.07;;;2.65;;
69161;SDS011;56269;51.738;21.652;2023-02-03T05:28:54;8.98;;;2.85;;
69161;SDS011;56269;51.738;21.652;2023-02-03T05:31:21;6.93;;;2.25;;
69161;SDS011;56269;51.738;21.652;2023-02-03T05:33:47;9.23;;;2.70;;
69161;SDS011;56269;51.738;21.652;2023-02-03T05:36:13;5.33;;;1.70;;
69161;SDS011;56269;51.738;21.652;2023-02-03T05:38:40;6.88;;;2.50;;
69161;SDS011;56269;51.738;21.652;2023-02-03T05:41:08;6.82;;;2.58;;
69161;SDS011;56269;51.738;21.652;2023-02-03T05:43:53;7.20;;;2.47;;
69161;SDS011;56269;51.738;21.652;2023-02-03T05:46:20;7.47;;;3.13;;
69161;SDS011;56269;51.738;21.652;2023-02-03T05:48:46;9.80;;;2.70;;
69161;SDS011;56269;51.738;21.652;2023-02-03T05:51:12;9.95;;;3.15;;
69161;SDS011;56269;51.738;21.652;2023-02-03T05:53:39;8.32;;;2.90;;
69161;SDS011;56269;51.738;21.652;2023-02-03T05:56:05;5.25;;;2.13;;
69161;SDS011;56269;51.738;21.652;2023-02-03T05:58:31;7.05;;;2.90;;
69161;SDS011;56269;51.738;21.652;2023-02-03T06:00:58;8.40;;;2.67;;
69161;SDS011;56269;51.738;21.652;2023-02-03T06:03:24;9.80;;;3.08;;
69161;SDS011;56269;51.738;21.652;2023-02-03T06:05:50;8.43;;;2.90;;
69161;SDS011;56269;51.738;21.652;2023-02-03T06:08:16;6.30;;;2.40;;
69161;SDS011;56269;51.738;21.652;2023-02-03T06:10:43;8.48;;;2.72;;
69161;SDS011;56269;51.738;21.652;2023-02-03T06:13:13;7.30;;;2.10;;
69161;SDS011;56269;51.738;21.652;2023-02-03T06:15:40;6.95;;;2.60;;
69161;SDS011;56269;51.738;21.652;2023-02-03T06:18:07;9.25;;;3.10;;
69161;SDS011;56269;51.738;21.652;2023-02-03T06:20:34;4.70;;;1.70;;
69161;SDS011;56269;51.738;21.652;2023-02-03T06:23:00;8.95;;;2.70;;
69161;SDS011;56269;51.738;21.652;2023-02-03T06:25:27;8.53;;;2.60;;
69161;SDS011;56269;51.738;21.652;2023-02-03T06:27:53;10.48;;;2.70;;
69161;SDS011;56269;51.738;21.652;2023-02-03T06:30:19;10.55;;;3.05;;
69161;SDS011;56269;51.738;21.652;2023-02-03T06:32:48;12.02;;;2.72;;
69161;SDS011;56269;51.738;21.652;2023-02-03T06:35:14;6.97;;;2.35;;
69161;SDS011;56269;51.738;21.652;2023-02-03T06:37:41;6.33;;;2.10;;
69161;SDS011;56269;51.738;21.652;2023-02-03T06:40:08;8.38;;;2.50;;
69161;SDS011;56269;51.738;21.652;2023-02-03T06:42:35;9.43;;;3.15;;
69161;SDS011;56269;51.738;21.652;2023-02-03T06:45:02;8.60;;;3.00;;
69161;SDS011;56269;51.738;21.652;2023-02-03T06:47:28;7.63;;;2.92;;
69161;SDS011;56269;51.738;21.652;2023-02-03T06:49:55;8.07;;;2.90;;
69161;SDS011;56269;51.738;21.652;2023-02-03T06:52:21;9.30;;;2.83;;
69161;SDS011;56269;51.738;21.652;2023-02-03T06:54:47;10.77;;;3.63;;
69161;SDS011;56269;51.738;21.652;2023-02-03T06:57:13;9.10;;;3.50;;
69161;SDS011;56269;51.738;21.652;2023-02-03T06:59:40;13.20;;;3.55;;
69161;SDS011;56269;51.738;21.652;2023-02-03T07:02:06;10.60;;;3.67;;
69161;SDS011;56269;51.738;21.652;2023-02-03T07:04:32;9.93;;;3.65;;
69161;SDS011;56269;51.738;21.652;2023-02-03T07:06:58;10.95;;;3.58;;
69161;SDS011;56269;51.738;21.652;2023-02-03T07:09:25;8.57;;;2.90;;
69161;SDS011;56269;51.738;21.652;2023-02-03T07:11:51;12.45;;;3.13;;
69161;SDS011;56269;51.738;21.652;2023-02-03T07:14:17;9.23;;;2.97;;
69161;SDS011;56269;51.738;21.652;2023-02-03T07:16:43;9.80;;;3.25;;
69161;SDS011;56269;51.738;21.652;2023-02-03T07:19:11;8.88;;;2.88;;
69161;SDS011;56269;51.738;21.652;2023-02-03T07:21:37;9.70;;;3.40;;
69161;SDS011;56269;51.738;21.652;2023-02-03T07:24:03;10.88;;;3.13;;
69161;SDS011;56269;51.738;21.652;2023-02-03T07:26:30;9.70;;;3.20;;
69161;SDS011;56269;51.738;21.652;2023-02-03T07:28:56;11.32;;;3.28;;
69161;SDS011;56269;51.738;21.652;2023-02-03T07:31:24;11.35;;;3.58;;
69161;SDS011;56269;51.738;21.652;2023-02-03T07:33:50;8.13;;;3.03;;
69161;SDS011;56269;51.738;21.652;2023-02-03T07:36:16;9.85;;;2.55;;
69161;SDS011;56269;51.738;21.652;2023-02-03T07:38:43;9.10;;;2.77;;
69161;SDS011;56269;51.738;21.652;2023-02-03T07:41:09;11.50;;;3.75;;
69161;SDS011;56269;51.738;21.652;2023-02-03T07:43:35;13.32;;;5.05;;
69161;SDS011;56269;51.738;21.652;2023-02-03T07:46:01;18.17;;;6.95;;
69161;SDS011;56269;51.738;21.652;2023-02-03T07:48:28;13.23;;;5.15;;
69161;SDS011;56269;51.738;21.652;2023-02-03T07:50:54;14.07;;;4.50;;
69161;SDS011;56269;51.738;21.652;2023-02-03T07:53:20;6.07;;;2.28;;
69161;SDS011;56269;51.738;21.652;2023-02-03T07:55:46;10.95;;;2.92;;
69161;SDS011;56269;51.738;21.652;2023-02-03T07:58:13;9.15;;;3.13;;
69161;SDS011;56269;51.738;21.652;2023-02-03T08:00:39;9.30;;;3.13;;
69161;SDS011;56269;51.738;21.652;2023-02-03T08:03:06;8.07;;;2.67;;
69161;SDS011;56269;51.738;21.652;2023-02-03T08:05:32;4.78;;;1.75;;
69161;SDS011;56269;51.738;21.652;2023-02-03T08:07:58;6.47;;;2.50;;
69161;SDS011;56269;51.738;21.652;2023-02-03T08:10:24;8.80;;;2.47;;
69161;SDS011;56269;51.738;21.652;2023-02-03T08:12:52;7.50;;;2.40;;
69161;SDS011;56269;51.738;21.652;2023-02-03T08:15:19;9.47;;;2.80;;
69161;SDS011;56269;51.738;21.652;2023-02-03T08:17:45;11.48;;;3.38;;
69161;SDS011;56269;51.738;21.652;2023-02-03T08:20:14;7.05;;;2.10;;
69161;SDS011;56269;51.738;21.652;2023-02-03T08:22:41;7.97;;;1.95;;
69161;SDS011;56269;51.738;21.652;2023-02-03T08:25:07;9.05;;;3.08;;
69161;SDS011;56269;51.738;21.652;2023-02-03T08:27:34;6.57;;;2.17;;
69161;SDS011;56269;51.738;21.652;2023-02-03T08:30:00;8.55;;;2.53;;
69161;SDS011;56269;51.738;21.652;2023-02-03T08:32:27;7.40;;;2.40;;
69161;SDS011;56269;51.738;21.652;2023-02-03T08:34:53;5.95;;;1.90;;
69161;SDS011;56269;51.738;21.652;2023-02-03T08:37:21;5.50;;;1.90;;
69161;SDS011;56269;51.738;21.652;2023-02-03T08:39:52;8.37;;;2.90;;
69161;SDS011;56269;51.738;21.652;2023-02-03T08:42:19;7.68;;;2.05;;
69161;SDS011;56269;51.738;21.652;2023-02-03T08:44:45;7.85;;;2.38;;
69161;SDS011;56269;51.738;21.652;2023-02-03T08:47:11;5.35;;;1.67;;
69161;SDS011;56269;51.738;21.652;2023-02-03T08:49:37;4.88;;;1.30;;
69161;SDS011;56269;51.738;21.652;2023-02-03T08:52:05;4.17;;;1.50;;
69161;SDS011;56269;51.738;21.652;2023-02-03T08:54:32;4.35;;;1.48;;
69161;SDS011;56269;51.738;21.652;2023-02-03T08:56:58;7.00;;;1.90;;
69161;SDS011;56269;51.738;21.652;2023-02-03T08:59:25;4.57;;;1.52;;
69161;SDS011;56269;51.738;21.652;2023-02-03T09:01:51;3.50;;;1.15;;
69161;SDS011;56269;51.738;21.652;2023-02-03T09:04:18;6.53;;;1.70;;
69161;SDS011;56269;51.738;21.652;2023-02-03T09:06:50;5.30;;;1.75;;
69161;SDS011;56269;51.738;21.652;2023-02-03T09:09:19;5.65;;;1.75;;
69161;SDS011;56269;51.738;21.652;2023-02-03T09:11:46;5.82;;;1.52;;
69161;SDS011;56269;51.738;21.652;2023-02-03T09:14:12;5.80;;;1.50;;
69161;SDS011;56269;51.738;21.652;2023-02-03T09:16:38;3.70;;;1.33;;
69161;SDS011;56269;51.738;21.652;2023-02-03T09:19:06;4.30;;;1.30;;
69161;SDS011;56269;51.738;21.652;2023-02-03T09:21:32;7.70;;;1.92;;
69161;SDS011;56269;51.738;21.652;2023-02-03T09:24:00;4.50;;;1.40;;
69161;SDS011;56269;51.738;21.652;2023-02-03T09:26:27;4.25;;;1.38;;
69161;SDS011;56269;51.738;21.652;2023-02-03T09:28:53;4.27;;;1.20;;
69161;SDS011;56269;51.738;21.652;2023-02-03T09:31:19;5.63;;;1.50;;
69161;SDS011;56269;51.738;21.652;2023-02-03T09:33:45;2.78;;;0.90;;
69161;SDS011;56269;51.738;21.652;2023-02-03T09:36:12;4.32;;;1.40;;
69161;SDS011;56269;51.738;21.652;2023-02-03T09:38:38;2.72;;;0.90;;
69161;SDS011;56269;51.738;21.652;2023-02-03T09:46:34;6.45;;;1.55;;
69161;SDS011;56269;51.738;21.652;2023-02-03T09:49:07;3.53;;;1.23;;
69161;SDS011;56269;51.738;21.652;2023-02-03T09:51:57;2.78;;;1.00;;
69161;SDS011;56269;51.738;21.652;2023-02-03T09:57:00;4.30;;;1.20;;
69161;SDS011;56269;51.738;21.652;2023-02-03T09:59:40;4.15;;;1.25;;
69161;SDS011;56269;51.738;21.652;2023-02-03T10:02:18;3.30;;;1.00;;
69161;SDS011;56269;51.738;21.652;2023-02-03T10:10:39;3.58;;;1.10;;
69161;SDS011;56269;51.738;21.652;2023-02-03T10:18:54;3.92;;;1.33;;
69161;SDS011;56269;51.738;21.652;2023-02-03T10:24:26;4.88;;;1.38;;
69161;SDS011;56269;51.738;21.652;2023-02-03T10:27:00;5.32;;;1.85;;
69161;SDS011;56269;51.738;21.652;2023-02-03T10:29:34;4.03;;;1.67;;
69161;SDS011;56269;51.738;21.652;2023-02-03T10:32:07;6.07;;;1.85;;
69161;SDS011;56269;51.738;21.652;2023-02-03T10:34:38;6.67;;;1.60;;
69161;SDS011;56269;51.738;21.652;2023-02-03T10:37:26;4.47;;;1.38;;
69161;SDS011;56269;51.738;21.652;2023-02-03T10:39:56;3.03;;;1.08;;
69161;SDS011;56269;51.738;21.652;2023-02-03T10:42:25;5.97;;;1.73;;
69161;SDS011;56269;51.738;21.652;2023-02-03T10:45:14;4.60;;;1.58;;
69161;SDS011;56269;51.738;21.652;2023-02-03T10:47:47;5.10;;;1.70;;
69161;SDS011;56269;51.738;21.652;2023-02-03T10:55:47;5.47;;;1.65;;
69161;SDS011;56269;51.738;21.652;2023-02-03T10:58:18;6.25;;;2.10;;
69161;SDS011;56269;51.738;21.652;2023-02-03T11:01:03;4.37;;;1.30;;
69161;SDS011;56269;51.738;21.652;2023-02-03T11:03:34;5.65;;;1.50;;
69161;SDS011;56269;51.738;21.652;2023-02-03T11:06:14;4.40;;;1.40;;
69161;SDS011;56269;51.738;21.652;2023-02-03T11:08:42;5.85;;;1.85;;
69161;SDS011;56269;51.738;21.652;2023-02-03T11:11:29;7.45;;;2.55;;
69161;SDS011;56269;51.738;21.652;2023-02-03T11:16:33;4.88;;;1.52;;
69161;SDS011;56269;51.738;21.652;2023-02-03T11:19:01;5.35;;;1.55;;
69161;SDS011;56269;51.738;21.652;2023-02-03T11:21:50;4.85;;;1.60;;
69161;SDS011;56269;51.738;21.652;2023-02-03T11:26:48;4.13;;;1.27;;
69161;SDS011;56269;51.738;21.652;2023-02-03T11:31:56;5.00;;;1.40;;
69161;SDS011;56269;51.738;21.652;2023-02-03T11:39:56;3.63;;;1.13;;
69161;SDS011;56269;51.738;21.652;2023-02-03T11:45:26;4.82;;;1.73;;
69161;SDS011;56269;51.738;21.652;2023-02-03T11:47:53;4.53;;;1.42;;
69161;SDS011;56269;51.738;21.652;2023-02-03T11:58:36;2.80;;;1.15;;
69161;SDS011;56269;51.738;21.652;2023-02-03T12:12:50;4.80;;;1.42;;
69161;SDS011;56269;51.738;21.652;2023-02-03T12:18:29;3.92;;;1.27;;
69161;SDS011;56269;51.738;21.652;2023-02-03T12:23:48;4.45;;;1.27;;
69161;SDS011;56269;51.738;21.652;2023-02-03T12:29:36;6.53;;;2.35;;
69161;SDS011;56269;51.738;21.652;2023-02-03T12:35:12;7.67;;;2.40;;
69161;SDS011;56269;51.738;21.652;2023-02-03T12:38:08;6.20;;;2.17;;
69161;SDS011;56269;51.738;21.652;2023-02-03T12:49:02;7.07;;;2.00;;
69161;SDS011;56269;51.738;21.652;2023-02-03T12:59:41;5.97;;;2.17;;
69161;SDS011;56269;51.738;21.652;2023-02-03T13:02:27;6.17;;;2.03;;
69161;SDS011;56269;51.738;21.652;2023-02-03T13:05:00;6.22;;;2.08;;
69161;SDS011;56269;51.738;21.652;2023-02-03T13:07:38;7.32;;;2.58;;
69161;SDS011;56269;51.738;21.652;2023-02-03T13:13:04;8.52;;;2.40;;
69161;SDS011;56269;51.738;21.652;2023-02-03T13:15:38;7.40;;;2.40;;
69161;SDS011;56269;51.738;21.652;2023-02-03T13:20:58;8.18;;;2.40;;
69161;SDS011;56269;51.738;21.652;2023-02-03T13:23:25;7.90;;;2.08;;
69161;SDS011;56269;51.738;21.652;2023-02-03T13:32:09;6.82;;;2.05;;
69161;SDS011;56269;51.738;21.652;2023-02-03T13:40:04;5.13;;;1.63;;
69161;SDS011;56269;51.738;21.652;2023-02-03T13:42:57;7.57;;;2.33;;
69161;SDS011;56269;51.738;21.652;2023-02-03T13:45:32;7.15;;;2.20;;
69161;SDS011;56269;51.738;21.652;2023-02-03T13:48:09;8.13;;;2.38;;
69161;SDS011;56269;51.738;21.652;2023-02-03T13:50:43;7.93;;;2.42;;
69161;SDS011;56269;51.738;21.652;2023-02-03T13:53:15;8.30;;;2.80;;
69161;SDS011;56269;51.738;21.652;2023-02-03T13:55:53;6.37;;;2.20;;
69161;SDS011;56269;51.738;21.652;2023-02-03T13:58:32;5.95;;;2.05;;
69161;SDS011;56269;51.738;21.652;2023-02-03T14:01:03;6.85;;;2.38;;
69161;SDS011;56269;51.738;21.652;2023-02-03T14:03:47;4.57;;;1.58;;
69161;SDS011;56269;51.738;21.652;2023-02-03T14:07:00;5.78;;;1.92;;
69161;SDS011;56269;51.738;21.652;2023-02-03T14:09:00;5.93;;;1.90;;
69161;SDS011;56269;51.738;21.652;2023-02-03T14:19:01;6.30;;;2.08;;
69161;SDS011;56269;51.738;21.652;2023-02-03T14:21:28;6.80;;;2.60;;
69161;SDS011;56269;51.738;21.652;2023-02-03T14:24:13;13.23;;;3.85;;
69161;SDS011;56269;51.738;21.652;2023-02-03T14:26:42;14.15;;;4.90;;
69161;SDS011;56269;51.738;21.652;2023-02-03T14:29:31;7.10;;;2.28;;
69161;SDS011;56269;51.738;21.652;2023-02-03T14:34:29;7.43;;;2.80;;
69161;SDS011;56269;51.738;21.652;2023-02-03T14:37:16;9.30;;;3.25;;
69161;SDS011;56269;51.738;21.652;2023-02-03T14:43:00;9.45;;;3.05;;
69161;SDS011;56269;51.738;21.652;2023-02-03T14:54:08;15.82;;;4.90;;
69161;SDS011;56269;51.738;21.652;2023-02-03T14:57:13;8.05;;;2.67;;
69161;SDS011;56269;51.738;21.652;2023-02-03T15:02:32;11.43;;;4.07;;
69161;SDS011;56269;51.738;21.652;2023-02-03T15:07:44;20.73;;;9.68;;
69161;SDS011;56269;51.738;21.652;2023-02-03T15:10:15;18.27;;;8.27;;
69161;SDS011;56269;51.738;21.652;2023-02-03T15:13:04;17.92;;;7.97;;
69161;SDS011;56269;51.738;21.652;2023-02-03T15:15:39;22.43;;;10.10;;
69161;SDS011;56269;51.738;21.652;2023-02-03T15:18:41;21.25;;;9.32;;
69161;SDS011;56269;51.738;21.652;2023-02-03T15:21:02;30.02;;;12.13;;
69161;SDS011;56269;51.738;21.652;2023-02-03T15:23:42;17.48;;;8.05;;
69161;SDS011;56269;51.738;21.652;2023-02-03T15:26:13;18.45;;;9.15;;
69161;SDS011;56269;51.738;21.652;2023-02-03T15:28:43;25.40;;;10.90;;
69161;SDS011;56269;51.738;21.652;2023-02-03T15:31:28;19.00;;;7.68;;
69161;SDS011;56269;51.738;21.652;2023-02-03T15:34:02;30.27;;;13.43;;
69161;SDS011;56269;51.738;21.652;2023-02-03T15:36:46;20.73;;;8.95;;
69161;SDS011;56269;51.738;21.652;2023-02-03T15:39:21;19.70;;;9.55;;
69161;SDS011;56269;51.738;21.652;2023-02-03T15:41:59;17.37;;;7.33;;
69161;SDS011;56269;51.738;21.652;2023-02-03T15:44:28;24.60;;;10.45;;
69161;SDS011;56269;51.738;21.652;2023-02-03T15:46:59;30.25;;;11.38;;
69161;SDS011;56269;51.738;21.652;2023-02-03T15:49:28;24.38;;;9.35;;
69161;SDS011;56269;51.738;21.652;2023-02-03T15:52:09;24.42;;;10.50;;
69161;SDS011;56269;51.738;21.652;2023-02-03T15:54:42;25.47;;;11.63;;
69161;SDS011;56269;51.738;21.652;2023-02-03T15:57:30;22.98;;;10.18;;
69161;SDS011;56269;51.738;21.652;2023-02-03T15:59:59;26.02;;;10.52;;
69161;SDS011;56269;51.738;21.652;2023-02-03T16:02:38;33.70;;;14.23;;
69161;SDS011;56269;51.738;21.652;2023-02-03T16:05:21;23.95;;;10.10;;
69161;SDS011;56269;51.738;21.652;2023-02-03T16:07:51;25.00;;;10.00;;
69161;SDS011;56269;51.738;21.652;2023-02-03T16:10:28;24.38;;;9.00;;
69161;SDS011;56269;51.738;21.652;2023-02-03T16:18:31;18.02;;;7.50;;
69161;SDS011;56269;51.738;21.652;2023-02-03T16:21:03;22.23;;;7.33;;
69161;SDS011;56269;51.738;21.652;2023-02-03T16:23:30;24.88;;;9.88;;
69161;SDS011;56269;51.738;21.652;2023-02-03T16:26:01;21.33;;;9.52;;
69161;SDS011;56269;51.738;21.652;2023-02-03T16:28:53;27.75;;;11.95;;
69161;SDS011;56269;51.738;21.652;2023-02-03T16:31:43;23.83;;;10.32;;
69161;SDS011;56269;51.738;21.652;2023-02-03T16:34:29;26.80;;;10.50;;
69161;SDS011;56269;51.738;21.652;2023-02-03T16:37:21;16.13;;;6.18;;
69161;SDS011;56269;51.738;21.652;2023-02-03T16:40:12;19.92;;;8.27;;
69161;SDS011;56269;51.738;21.652;2023-02-03T16:43:00;21.02;;;9.25;;
69161;SDS011;56269;51.738;21.652;2023-02-03T16:45:55;20.73;;;9.70;;
69161;SDS011;56269;51.738;21.652;2023-02-03T16:48:40;20.17;;;6.80;;
69161;SDS011;56269;51.738;21.652;2023-02-03T16:51:25;19.25;;;8.27;;
69161;SDS011;56269;51.738;21.652;2023-02-03T16:54:04;31.65;;;13.77;;
69161;SDS011;56269;51.738;21.652;2023-02-03T16:56:31;29.92;;;12.50;;
69161;SDS011;56269;51.738;21.652;2023-02-03T16:58:57;24.33;;;11.95;;
69161;SDS011;56269;51.738;21.652;2023-02-03T17:01:23;18.97;;;8.17;;
69161;SDS011;56269;51.738;21.652;2023-02-03T17:03:50;21.00;;;10.05;;
69161;SDS011;56269;51.738;21.652;2023-02-03T17:06:17;31.67;;;14.32;;
69161;SDS011;56269;51.738;21.652;2023-02-03T17:08:43;27.73;;;12.65;;
69161;SDS011;56269;51.738;21.652;2023-02-03T17:11:12;20.55;;;10.70;;
69161;SDS011;56269;51.738;21.652;2023-02-03T17:13:40;23.63;;;11.63;;
69161;SDS011;56269;51.738;21.652;2023-02-03T17:16:09;29.45;;;13.30;;
69161;SDS011;56269;51.738;21.652;2023-02-03T17:18:41;28.92;;;12.23;;
69161;SDS011;56269;51.738;21.652;2023-02-03T17:21:10;20.48;;;8.60;;
69161;SDS011;56269;51.738;21.652;2023-02-03T17:23:40;24.05;;;11.02;;
69161;SDS011;56269;51.738;21.652;2023-02-03T17:26:07;27.23;;;11.83;;
69161;SDS011;56269;51.738;21.652;2023-02-03T17:28:33;23.55;;;10.15;;
69161;SDS011;56269;51.738;21.652;2023-02-03T17:31:02;22.67;;;9.57;;
69161;SDS011;56269;51.738;21.652;2023-02-03T17:33:31;20.45;;;9.27;;
69161;SDS011;56269;51.738;21.652;2023-02-03T17:36:00;26.17;;;12.82;;
69161;SDS011;56269;51.738;21.652;2023-02-03T17:38:40;19.63;;;9.07;;
69161;SDS011;56269;51.738;21.652;2023-02-03T17:41:13;24.42;;;10.00;;
69161;SDS011;56269;51.738;21.652;2023-02-03T17:43:44;17.90;;;7.80;;